Toppenish, Washington
Current Conditions -  °F | °C
As of 2:53 AM on Friday 28 Nov 2014 (Local Time) from KYKM Reporting Station
Clear Clear  
Wind Chill: 55°   Ceiling: Unl
Heat Index: 55°   Visibility: 10mi
Dew Point: 43°   Wind: 15mph
Humidity: 64%   Direction: 200°SSW
Pressure: 29.63"   Gusts: NA
Location:  46.38°N, 120.31°W
Report Text: KYKM 281053Z AUTO 20013KT 10SM CLR 13/06 A2963 RMK AO2 PK WND 20026/1035 SLP032 T01280061
Loading
Personal Weather Stations






























Interactive Weather Map New forecast layout! Learn more

10-Day Weather Forecast

Advertisements
Track Severe Weather on mobile